createdAt,value
2022-08-18T00:01:07.244Z,99633.44
2022-08-18T00:03:53.270Z,99635.41
2022-08-18T00:06:22.647Z,99639.81
2022-08-18T00:08:53.031Z,99631.34
2022-08-18T00:11:22.443Z,99628.84
2022-08-18T00:13:50.376Z,99629.94
2022-08-18T00:16:18.042Z,99636.16
2022-08-18T00:18:45.628Z,99639.19
2022-08-18T00:21:13.556Z,99644.72
2022-08-18T00:23:41.176Z,99644.78
2022-08-18T00:26:08.822Z,99644.25
2022-08-18T00:28:38.036Z,99646.72
2022-08-18T00:31:06.696Z,99659.00
2022-08-18T00:33:34.407Z,99653.00
2022-08-18T00:36:02.255Z,99645.91
2022-08-18T00:38:30.005Z,99653.84
2022-08-18T00:40:57.934Z,99659.56
2022-08-18T00:43:31.778Z,99659.31
2022-08-18T00:46:02.274Z,99662.03
2022-08-18T00:48:30.215Z,99658.75
2022-08-18T00:51:00.443Z,99653.84
2022-08-18T00:53:33.340Z,99649.72
2022-08-18T00:56:05.915Z,99653.78
2022-08-18T00:58:39.730Z,99659.19
2022-08-18T01:01:10.480Z,99671.50
2022-08-18T01:03:40.840Z,99674.25
2022-08-18T01:06:14.598Z,99678.31
2022-08-18T01:08:42.740Z,99677.75
2022-08-18T01:11:11.460Z,99684.25
2022-08-18T01:13:42.270Z,99689.19
2022-08-18T01:16:29.199Z,99696.03
2022-08-18T01:19:13.798Z,99699.03
2022-08-18T01:21:51.809Z,99706.69
2022-08-18T01:24:43.078Z,99697.16
2022-08-18T01:27:15.020Z,99695.75
2022-08-18T01:29:43.633Z,99693.03
2022-08-18T01:32:12.582Z,99700.63
2022-08-18T01:34:40.265Z,99705.28
2022-08-18T01:37:07.964Z,99692.44
2022-08-18T01:41:24.886Z,99696.22
2022-08-18T01:42:26.455Z,99688.31
2022-08-18T01:44:54.069Z,99683.13
2022-08-18T01:47:21.644Z,99690.22
2022-08-18T01:49:49.251Z,99690.22
2022-08-18T01:52:21.064Z,99683.97
2022-08-18T01:54:50.381Z,99682.91
2022-08-18T01:57:20.908Z,99673.03
2022-08-18T01:59:48.678Z,99664.06
2022-08-18T02:02:24.215Z,99665.94
2022-08-18T02:04:54.562Z,99673.88
2022-08-18T02:07:22.251Z,99680.47
2022-08-18T02:09:59.781Z,99686.22
2022-08-18T02:12:27.441Z,99693.09
2022-08-18T02:14:55.089Z,99703.78
2022-08-18T02:17:22.695Z,99707.34
2022-08-18T02:19:50.257Z,99696.16
2022-08-18T02:22:20.751Z,99688.78
2022-08-18T02:24:50.134Z,99701.34
2022-08-18T02:27:19.104Z,99700.28
2022-08-18T02:29:46.914Z,99698.69
2022-08-18T02:32:14.880Z,99703.63
2022-08-18T02:34:42.847Z,99695.72
2022-08-18T02:37:15.154Z,99692.72
2022-08-18T02:39:43.482Z,99699.53
2022-08-18T02:42:11.660Z,99693.81
2022-08-18T02:44:40.662Z,99690.31
2022-08-18T02:47:08.257Z,99688.94
2022-08-18T02:49:36.899Z,99685.09
2022-08-18T02:52:05.882Z,99687.25
2022-08-18T02:54:33.672Z,99692.44
2022-08-18T02:57:06.759Z,99686.19
2022-08-18T02:59:34.633Z,99686.75
2022-08-18T03:02:04.168Z,99686.22
2022-08-18T03:04:32.467Z,99692.25
2022-08-18T03:07:02.607Z,99689.81
2022-08-18T03:09:30.863Z,99692.53
2022-08-18T03:11:59.074Z,99693.88
2022-08-18T03:14:28.245Z,99688.16
2022-08-18T03:16:56.225Z,99694.16
2022-08-18T03:19:28.280Z,99699.56
2022-08-18T03:21:59.438Z,99699.28
2022-08-18T03:24:31.442Z,99692.44
2022-08-18T03:27:02.909Z,99697.91
2022-08-18T03:29:32.793Z,99700.09
2022-08-18T03:32:04.050Z,99694.91
2022-08-18T03:34:33.528Z,99691.63
2022-08-18T03:37:01.686Z,99684.00
2022-08-18T03:39:30.342Z,99694.38
2022-08-18T03:42:01.545Z,99696.56
2022-08-18T03:44:31.783Z,99698.47
2022-08-18T03:47:00.217Z,99698.78
2022-08-18T03:49:27.931Z,99691.94
2022-08-18T03:52:00.141Z,99694.38
2022-08-18T03:54:28.189Z,99691.66
2022-08-18T03:56:56.087Z,99694.63
2022-08-18T03:59:26.108Z,99695.47
2022-08-18T04:01:55.485Z,99695.47
2022-08-18T04:04:25.497Z,99692.41
2022-08-18T04:06:55.315Z,99694.28
2022-08-18T04:09:25.570Z,99695.13
2022-08-18T04:11:53.669Z,99694.56
2022-08-18T04:14:25.045Z,99690.75
2022-08-18T04:16:53.277Z,99682.28
2022-08-18T04:19:26.380Z,99685.31
2022-08-18T04:21:57.264Z,99686.94
2022-08-18T04:24:31.100Z,99693.78
2022-08-18T04:27:01.970Z,99691.88
2022-08-18T04:29:30.166Z,99683.16
2022-08-18T04:31:57.870Z,99681.78
2022-08-18T04:34:26.024Z,99688.00
2022-08-18T04:36:54.449Z,99679.00
2022-08-18T04:39:23.751Z,99681.44
2022-08-18T04:41:53.541Z,99680.91
2022-08-18T04:44:22.724Z,99684.22
2022-08-18T04:46:53.389Z,99682.53
2022-08-18T04:49:23.960Z,99685.28
2022-08-18T04:52:34.333Z,99687.50
2022-08-18T04:54:54.167Z,99685.59
2022-08-18T04:57:24.015Z,99686.38
2022-08-18T04:59:53.506Z,99687.19
2022-08-18T05:02:22.333Z,99698.59
2022-08-18T05:04:50.302Z,99697.53
2022-08-18T05:07:20.810Z,99695.66
2022-08-18T05:09:48.525Z,99701.69
2022-08-18T05:12:17.177Z,99703.91
2022-08-18T05:14:46.872Z,99707.38
2022-08-18T05:17:16.069Z,99718.28
2022-08-18T05:19:45.759Z,99719.94
2022-08-18T05:22:18.404Z,99726.47
2022-08-18T05:24:46.640Z,99724.56
2022-08-18T05:27:15.217Z,99721.06
2022-08-18T05:29:45.685Z,99723.78
2022-08-18T05:32:30.452Z,99726.00
2022-08-18T05:35:06.344Z,99723.22
2022-08-18T05:37:42.482Z,99724.06
2022-08-18T05:40:11.589Z,99725.19
2022-08-18T05:42:41.716Z,99720.56
2022-08-18T05:45:12.375Z,99715.63
2022-08-18T05:47:41.336Z,99721.09
2022-08-18T05:50:12.001Z,99715.91
2022-08-18T05:52:45.795Z,99716.44
2022-08-18T05:55:34.269Z,99723.53
2022-08-18T05:58:06.931Z,99719.44
2022-08-18T06:00:36.617Z,99722.97
2022-08-18T06:03:10.133Z,99716.13
2022-08-18T06:05:54.405Z,99716.41
2022-08-18T06:08:26.553Z,99711.19
2022-08-18T06:10:54.573Z,99707.66
2022-08-18T06:13:22.887Z,99701.13
2022-08-18T06:15:59.647Z,99701.13
2022-08-18T06:18:41.791Z,99698.13
2022-08-18T06:21:43.694Z,99695.91
2022-08-18T06:24:22.231Z,99689.41
2022-08-18T06:26:57.189Z,99682.59
2022-08-18T06:29:47.310Z,99674.69
2022-08-18T06:32:23.034Z,99678.47
2022-08-18T06:35:06.573Z,99671.94
2022-08-18T06:37:57.347Z,99680.06
2022-08-18T06:40:25.012Z,99678.13
2022-08-18T06:42:53.103Z,99685.16
2022-08-18T06:45:33.978Z,99692.50
2022-08-18T06:48:15.731Z,99696.22
2022-08-18T06:50:51.462Z,99705.34
2022-08-18T06:53:28.018Z,99703.47
2022-08-18T06:55:56.353Z,99708.94
2022-08-18T06:58:30.042Z,99704.00
2022-08-18T07:01:02.022Z,99710.34
2022-08-18T07:03:44.696Z,99716.72
2022-08-18T07:06:28.245Z,99718.09
2022-08-18T07:09:17.513Z,99721.94
2022-08-18T07:12:00.026Z,99724.94
2022-08-18T07:14:28.610Z,99722.75
2022-08-18T07:17:08.432Z,99714.53
2022-08-18T07:19:36.450Z,99719.72
2022-08-18T07:22:08.686Z,99714.56
2022-08-18T07:24:41.172Z,99721.94
2022-08-18T07:27:12.663Z,99726.88
2022-08-18T07:29:59.364Z,99737.22
2022-08-18T07:32:30.558Z,99741.84
2022-08-18T07:35:03.509Z,99752.81
2022-08-18T07:37:37.396Z,99748.72
2022-08-18T07:40:12.841Z,99750.59
2022-08-18T07:42:54.410Z,99753.00
2022-08-18T07:45:34.254Z,99755.16
2022-08-18T07:48:36.600Z,99752.19
2022-08-18T07:51:08.833Z,99770.75
2022-08-18T07:53:54.402Z,99770.50
2022-08-18T07:56:37.699Z,99771.84
2022-08-18T07:59:15.709Z,99776.72
2022-08-18T08:01:52.433Z,99781.66
2022-08-18T08:04:31.427Z,99781.97
2022-08-18T08:07:23.904Z,99790.41
2022-08-18T08:10:20.061Z,99784.41
2022-08-18T08:13:06.096Z,99785.47
2022-08-18T08:15:49.525Z,99789.53
2022-08-18T08:18:23.895Z,99790.13
2022-08-18T08:20:57.418Z,99792.31
2022-08-18T08:23:30.399Z,99792.59
2022-08-18T08:26:29.401Z,99784.66
2022-08-18T08:29:12.096Z,99792.56
2022-08-18T08:31:49.202Z,99798.56
2022-08-18T08:34:21.185Z,99802.59
2022-08-18T08:36:49.651Z,99803.38
2022-08-18T08:39:24.189Z,99807.66
2022-08-18T08:42:31.597Z,99809.16
2022-08-18T08:45:00.685Z,99805.91
2022-08-18T08:47:33.510Z,99809.28
2022-08-18T08:50:05.233Z,99804.56
2022-08-18T08:52:39.346Z,99809.28
2022-08-18T08:55:12.460Z,99812.03
2022-08-18T08:57:48.327Z,99814.13
2022-08-18T09:00:16.341Z,99796.75
2022-08-18T09:03:29.882Z,99805.53
2022-08-18T09:06:10.234Z,99803.59
2022-08-18T09:09:13.557Z,99798.19
2022-08-18T09:11:57.835Z,99785.94
2022-08-18T09:14:46.890Z,99794.41
2022-08-18T09:17:41.595Z,99800.16
2022-08-18T09:20:25.919Z,99790.28
2022-08-18T09:23:02.030Z,99797.78
2022-08-18T09:25:48.122Z,99790.56
2022-08-18T09:28:18.437Z,99788.44
2022-08-18T09:30:56.051Z,99787.31
2022-08-18T09:33:50.538Z,99786.25
2022-08-18T09:36:35.622Z,99780.16
2022-08-18T09:39:37.262Z,99776.81
2022-08-18T09:42:10.983Z,99779.13
2022-08-18T09:45:01.999Z,99772.69
2022-08-18T09:48:02.986Z,99775.09
2022-08-18T09:50:57.076Z,99789.25
2022-08-18T09:54:04.913Z,99787.03
2022-08-18T09:57:20.832Z,99781.63
2022-08-18T10:00:26.554Z,99781.84
2022-08-18T10:03:31.232Z,99782.31
2022-08-18T10:06:28.340Z,99777.63
2022-08-18T10:09:27.128Z,99784.66
2022-08-18T10:12:45.786Z,99787.03
2022-08-18T10:15:39.399Z,99773.88
2022-08-18T10:18:23.669Z,99769.75
2022-08-18T10:21:01.850Z,99777.47
2022-08-18T10:24:07.945Z,99783.53
2022-08-18T10:27:10.798Z,99780.84
2022-08-18T10:29:55.778Z,99789.53
2022-08-18T10:32:38.339Z,99782.69
2022-08-18T10:35:29.276Z,99781.47
2022-08-18T10:38:03.769Z,99784.59
2022-08-18T10:40:32.606Z,99791.84
2022-08-18T10:43:26.902Z,99792.28
2022-08-18T10:46:24.737Z,99790.69
2022-08-18T10:48:59.502Z,99784.53
2022-08-18T10:51:59.477Z,99788.66
2022-08-18T10:54:51.266Z,99807.00
2022-08-18T10:57:31.710Z,99794.75
2022-08-18T11:00:05.102Z,99780.66
2022-08-18T11:05:46.631Z,99776.53
2022-08-18T11:08:18.494Z,99762.72
2022-08-18T11:11:33.397Z,99759.06
2022-08-18T11:13:51.420Z,99761.53
2022-08-18T11:16:32.648Z,99762.16
2022-08-18T11:19:08.484Z,99759.94
2022-08-18T11:21:43.377Z,99750.91
2022-08-18T11:24:16.228Z,99761.31
2022-08-18T11:26:52.891Z,99769.03
2022-08-18T11:29:25.241Z,99765.63
2022-08-18T11:31:59.426Z,99762.56
2022-08-18T11:34:36.376Z,99743.59
2022-08-18T11:37:08.965Z,99733.81
2022-08-18T11:39:49.457Z,99723.19
2022-08-18T11:42:21.709Z,99706.69
2022-08-18T11:44:56.179Z,99692.78
2022-08-18T11:47:27.657Z,99690.19
2022-08-18T11:50:00.167Z,99682.72
2022-08-18T11:52:35.266Z,99685.34
2022-08-18T11:55:15.226Z,99696.28
2022-08-18T11:57:55.992Z,99699.56
2022-08-18T12:00:55.190Z,99697.03
2022-08-18T12:03:31.734Z,99691.38
2022-08-18T12:06:10.284Z,99692.84
2022-08-18T12:08:59.175Z,99687.47
2022-08-18T12:11:30.091Z,99683.13
2022-08-18T12:14:29.779Z,99669.38
2022-08-18T12:16:51.197Z,99658.84
2022-08-18T12:19:24.190Z,99654.84
2022-08-18T12:21:54.922Z,99648.59
2022-08-18T12:24:26.236Z,99649.19
2022-08-18T12:27:00.803Z,99654.13
2022-08-18T12:29:42.861Z,99664.41
2022-08-18T12:35:05.151Z,99661.19
2022-08-18T12:37:58.211Z,99655.41
2022-08-18T12:40:23.564Z,99641.91
2022-08-18T12:42:52.114Z,99652.13
2022-08-18T12:45:21.445Z,99654.28
2022-08-18T12:47:49.390Z,99645.69
2022-08-18T12:50:17.042Z,99645.00
2022-08-18T12:52:44.759Z,99634.81
2022-08-18T12:55:21.387Z,99636.88
2022-08-18T12:57:53.491Z,99635.13
2022-08-18T13:00:28.882Z,99640.84
2022-08-18T13:05:45.163Z,99642.84
2022-08-18T13:08:30.007Z,99638.13
2022-08-18T13:11:14.652Z,99635.47
2022-08-18T13:13:52.926Z,99630.22
2022-08-18T13:16:30.672Z,99623.25
2022-08-18T13:19:07.801Z,99625.22
2022-08-18T13:21:41.281Z,99612.59
2022-08-18T13:24:09.969Z,99611.03
2022-08-18T13:26:45.643Z,99608.91
2022-08-18T13:29:15.405Z,99616.63
2022-08-18T13:31:55.985Z,99610.53
2022-08-18T13:34:27.439Z,99609.63
2022-08-18T13:36:57.533Z,99602.22
2022-08-18T13:39:34.296Z,99612.13
2022-08-18T13:42:26.431Z,99612.28
2022-08-18T13:44:55.136Z,99605.34
2022-08-18T13:47:29.315Z,99599.75
2022-08-18T13:49:58.682Z,99602.06
2022-08-18T13:52:35.653Z,99597.19
2022-08-18T13:55:11.861Z,99588.44
2022-08-18T13:57:49.761Z,99594.75
2022-08-18T14:00:30.341Z,99596.06
2022-08-18T14:03:03.197Z,99599.16
2022-08-18T14:05:36.227Z,99605.97
2022-08-18T14:08:19.761Z,99591.84
2022-08-18T14:10:50.392Z,99585.00
2022-08-18T14:13:24.396Z,99586.31
2022-08-18T14:15:56.029Z,99583.69
2022-08-18T14:18:29.021Z,99585.31
2022-08-18T14:21:21.824Z,99577.09
2022-08-18T14:24:10.508Z,99572.25
2022-08-18T14:26:51.232Z,99576.09
2022-08-18T14:29:45.706Z,99569.16
2022-08-18T14:32:08.377Z,99555.97
2022-08-18T14:34:37.695Z,99562.13
2022-08-18T14:37:17.774Z,99564.72
2022-08-18T14:39:48.052Z,99561.69
2022-08-18T14:42:21.394Z,99560.41
2022-08-18T14:45:17.482Z,99547.41
2022-08-18T14:47:54.716Z,99554.88
2022-08-18T14:50:25.662Z,99554.72
2022-08-18T14:52:54.176Z,99549.84
2022-08-18T14:55:23.506Z,99559.09
2022-08-18T14:57:52.267Z,99549.03
2022-08-18T15:00:20.901Z,99552.88
2022-08-18T15:02:50.477Z,99550.25
2022-08-18T15:05:24.479Z,99549.31
2022-08-18T15:07:54.399Z,99543.34
2022-08-18T15:10:23.751Z,99554.22
2022-08-18T15:12:57.700Z,99555.88
2022-08-18T15:15:25.680Z,99557.66
2022-08-18T15:17:53.374Z,99560.88
2022-08-18T15:20:28.916Z,99551.97
2022-08-18T15:23:22.765Z,99554.59
2022-08-18T15:25:56.366Z,99559.44
2022-08-18T15:28:27.075Z,99564.78
2022-08-18T15:33:43.007Z,99563.38
2022-08-18T15:36:16.324Z,99556.94
2022-08-18T15:38:45.413Z,99565.28
2022-08-18T15:41:29.529Z,99570.47
2022-08-18T15:43:58.952Z,99573.06
2022-08-18T15:46:26.547Z,99569.41
2022-08-18T15:48:54.129Z,99563.91
2022-08-18T15:51:23.270Z,99568.44
2022-08-18T15:53:52.263Z,99559.69
2022-08-18T15:56:26.197Z,99571.19
2022-08-18T15:58:54.012Z,99569.56
2022-08-18T16:01:32.427Z,99556.41
2022-08-18T16:04:03.079Z,99562.25
2022-08-18T16:06:32.740Z,99554.19
2022-08-18T16:09:03.708Z,99548.81
2022-08-18T16:11:31.697Z,99546.84
2022-08-18T16:13:59.938Z,99548.38
2022-08-18T16:16:29.041Z,99555.19
2022-08-18T16:19:03.966Z,99546.72
2022-08-18T16:21:31.750Z,99541.88
2022-08-18T16:24:00.704Z,99541.28
2022-08-18T16:26:28.705Z,99543.00
2022-08-18T16:28:57.535Z,99532.53
2022-08-18T16:31:28.401Z,99534.91
2022-08-18T16:33:57.799Z,99534.66
2022-08-18T16:36:26.377Z,99532.69
2022-08-18T16:38:56.101Z,99540.41
2022-08-18T16:41:28.558Z,99538.78
2022-08-18T16:43:56.324Z,99534.91
2022-08-18T16:46:27.024Z,99541.69
2022-08-18T16:48:56.533Z,99544.94
2022-08-18T16:51:28.395Z,99550.25
2022-08-18T16:53:56.352Z,99542.34
2022-08-18T16:56:26.921Z,99543.47
2022-08-18T16:59:14.054Z,99556.84
2022-08-18T17:02:00.434Z,99551.72
2022-08-18T17:04:33.460Z,99550.09
2022-08-18T17:07:02.204Z,99551.38
2022-08-18T17:09:30.149Z,99556.81
2022-08-18T17:11:57.836Z,99557.00
2022-08-18T17:14:29.695Z,99557.66
2022-08-18T17:16:58.411Z,99550.16
2022-08-18T17:19:29.837Z,99553.72
2022-08-18T17:21:57.489Z,99555.47
2022-08-18T17:24:32.038Z,99559.84
2022-08-18T17:27:11.835Z,99559.66
2022-08-18T17:29:48.201Z,99562.00
2022-08-18T17:32:26.833Z,99562.69
2022-08-18T17:35:01.867Z,99568.19
2022-08-18T17:37:31.009Z,99565.25
2022-08-18T17:40:03.871Z,99577.56
2022-08-18T17:42:33.466Z,99580.00
2022-08-18T17:45:06.518Z,99575.00
2022-08-18T17:47:43.305Z,99575.91
2022-08-18T17:50:42.290Z,99577.66
2022-08-18T17:53:11.603Z,99581.41
2022-08-18T17:55:45.920Z,99584.34
2022-08-18T17:58:20.414Z,99588.13
2022-08-18T18:00:49.448Z,99579.53
2022-08-18T18:03:17.204Z,99585.94
2022-08-18T18:05:51.620Z,99584.41
2022-08-18T18:08:19.519Z,99584.19
2022-08-18T18:11:04.629Z,99593.97
2022-08-18T18:13:34.411Z,99594.25
2022-08-18T18:16:21.078Z,99593.53
2022-08-18T18:19:00.981Z,99597.22
2022-08-18T18:21:56.582Z,99589.84
2022-08-18T18:24:23.785Z,99590.00
2022-08-18T18:26:52.669Z,99591.00
2022-08-18T18:29:29.071Z,99591.66
2022-08-18T18:32:05.448Z,99598.25
2022-08-18T18:34:39.360Z,99596.31
2022-08-18T18:37:25.040Z,99591.81
2022-08-18T18:39:57.543Z,99595.75
2022-08-18T18:42:27.215Z,99598.00
2022-08-18T18:44:58.169Z,99595.47
2022-08-18T18:47:48.708Z,99600.94
2022-08-18T18:50:23.350Z,99606.22
2022-08-18T18:53:04.042Z,99604.44
2022-08-18T18:55:39.142Z,99600.34
2022-08-18T18:58:15.876Z,99604.19
2022-08-18T19:00:53.711Z,99617.69
2022-08-18T19:03:31.858Z,99616.03
2022-08-18T19:06:13.969Z,99618.94
2022-08-18T19:08:50.465Z,99622.22
2022-08-18T19:11:25.035Z,99626.03
2022-08-18T19:13:59.658Z,99626.72
2022-08-18T19:16:33.848Z,99634.78
2022-08-18T19:19:37.182Z,99630.16
2022-08-18T19:22:06.786Z,99635.19
2022-08-18T19:24:41.585Z,99634.00
2022-08-18T19:27:23.585Z,99632.31
2022-08-18T19:29:55.155Z,99639.19
2022-08-18T19:32:33.235Z,99643.63
2022-08-18T19:35:04.548Z,99643.38
2022-08-18T19:37:53.846Z,99646.69
2022-08-18T19:40:28.182Z,99644.84
2022-08-18T19:43:01.790Z,99650.75
2022-08-18T19:45:35.499Z,99651.53
2022-08-18T19:48:08.157Z,99660.81
2022-08-18T19:50:42.913Z,99647.69
2022-08-18T19:53:27.974Z,99646.59
2022-08-18T19:56:21.480Z,99648.31
2022-08-18T19:59:15.571Z,99644.78
2022-08-18T20:01:56.636Z,99644.94
2022-08-18T20:04:41.585Z,99646.19
2022-08-18T20:07:25.972Z,99643.00
2022-08-18T20:10:31.915Z,99640.19
2022-08-18T20:13:19.905Z,99640.38
2022-08-18T20:16:11.035Z,99644.22
2022-08-18T20:18:42.593Z,99636.56
2022-08-18T20:21:45.557Z,99641.91
2022-08-18T20:24:54.764Z,99639.47
2022-08-18T20:27:35.349Z,99637.38
2022-08-18T20:30:23.616Z,99626.69
2022-08-18T20:33:30.183Z,99633.94
2022-08-18T20:36:10.435Z,99636.03
2022-08-18T20:38:40.547Z,99630.56
2022-08-18T20:41:43.257Z,99633.47
2022-08-18T20:44:36.624Z,99638.91
2022-08-18T20:47:37.945Z,99640.84
2022-08-18T20:50:31.385Z,99637.16
2022-08-18T20:53:10.485Z,99640.59
2022-08-18T20:55:49.269Z,99638.84
2022-08-18T20:58:27.123Z,99646.28
2022-08-18T21:00:58.225Z,99651.28
2022-08-18T21:03:36.942Z,99651.06
2022-08-18T21:06:06.531Z,99640.59
2022-08-18T21:08:37.362Z,99634.59
2022-08-18T21:11:10.071Z,99637.13
2022-08-18T21:13:51.383Z,99635.16
2022-08-18T21:16:38.649Z,99640.28
2022-08-18T21:19:13.723Z,99637.69
2022-08-18T21:21:48.337Z,99639.09
2022-08-18T21:24:26.871Z,99639.91
2022-08-18T21:26:57.704Z,99640.69
2022-08-18T21:29:34.481Z,99632.81
2022-08-18T21:32:20.500Z,99639.19
2022-08-18T21:34:51.257Z,99621.22
2022-08-18T21:37:21.020Z,99623.47
2022-08-18T21:39:52.091Z,99614.78
2022-08-18T21:42:24.511Z,99616.75
2022-08-18T21:44:55.553Z,99622.84
2022-08-18T21:47:26.251Z,99621.84
2022-08-18T21:50:08.472Z,99615.00
2022-08-18T21:52:37.929Z,99614.75
2022-08-18T21:55:22.488Z,99612.34
2022-08-18T21:58:03.053Z,99623.00
2022-08-18T22:00:34.549Z,99634.19
2022-08-18T22:03:22.198Z,99645.13
2022-08-18T22:06:00.705Z,99645.19
2022-08-18T22:08:31.220Z,99652.56
2022-08-18T22:11:51.842Z,99655.88
2022-08-18T22:14:54.028Z,99657.63
2022-08-18T22:17:42.020Z,99656.81
2022-08-18T22:20:40.701Z,99667.16
2022-08-18T22:23:41.617Z,99666.00
2022-08-18T22:26:13.304Z,99673.41
2022-08-18T22:28:52.473Z,99667.97
2022-08-18T22:31:21.455Z,99672.34
2022-08-18T22:33:51.216Z,99677.22
2022-08-18T22:36:21.749Z,99681.81
2022-08-18T22:38:50.278Z,99687.03
2022-08-18T22:41:18.376Z,99688.09
2022-08-18T22:43:46.189Z,99689.47
2022-08-18T22:46:21.566Z,99687.84
2022-08-18T22:48:53.858Z,99697.44
2022-08-18T22:51:24.442Z,99703.97
2022-08-18T22:53:52.842Z,99714.59
2022-08-18T22:56:22.651Z,99711.63
2022-08-18T22:59:05.864Z,99720.06
2022-08-18T23:01:43.324Z,99717.09
2022-08-18T23:04:12.324Z,99712.19
2022-08-18T23:06:39.992Z,99711.38
2022-08-18T23:09:07.611Z,99700.13
2022-08-18T23:11:35.542Z,99710.56
2022-08-18T23:14:03.762Z,99710.84
2022-08-18T23:16:32.561Z,99705.63
2022-08-18T23:19:01.899Z,99704.19
2022-08-18T23:21:34.735Z,99702.03
2022-08-18T23:24:04.404Z,99701.28
2022-08-18T23:26:32.103Z,99706.47
2022-08-18T23:28:59.737Z,99707.06
2022-08-18T23:31:27.699Z,99703.97
2022-08-18T23:33:55.337Z,99702.09
2022-08-18T23:36:23.047Z,99696.91
2022-08-18T23:38:53.890Z,99687.91
2022-08-18T23:41:22.461Z,99678.63
2022-08-18T23:43:50.734Z,99687.09
2022-08-18T23:46:21.762Z,99681.63
2022-08-18T23:48:51.324Z,99688.13
2022-08-18T23:51:28.686Z,99697.44
2022-08-18T23:54:00.056Z,99703.47
2022-08-18T23:56:28.544Z,99690.88
2022-08-18T23:58:57.283Z,99691.69
